Time;durP1;ratioP1;P1;durP2;ratioP2;P2;SDS_P1;SDS_P2;PMS_P1;PMS_P2;Temp;Humidity;BMP_temperature;BMP_pressure;BME280_temperature;BME280_humidity;BME280_pressure;Samples;Min_cycle;Max_cycle;Signal;HPM_P1;HPM_P2
2023/07/08 00:00:42;;;;;;;;;;;25.90;47.80;;;;;;5095964;28;19928;-59
2023/07/08 00:03:09;;;;;;;;;;;25.90;47.90;;;;;;5097370;28;19924;-58
2023/07/08 00:05:37;;;;;;;;;;;25.90;47.90;;;;;;5096802;28;19930;-58
2023/07/08 00:08:04;;;;;;;;;;;25.90;48.00;;;;;;5096216;28;19970;-58
2023/07/08 00:10:31;;;;;;;;;;;25.80;47.90;;;;;;5096314;28;19932;-59
2023/07/08 00:12:58;;;;;;;;;;;25.80;47.90;;;;;;5097076;28;19928;-58
2023/07/08 00:15:27;;;;;;;;;;;25.80;47.90;;;;;;5095612;28;20380;-58
2023/07/08 00:17:54;;;;;;;;;;;25.80;48.00;;;;;;5095533;28;20019;-58
2023/07/08 00:20:23;;;;;;;;;;;25.80;48.00;;;;;;5095917;28;19950;-58
2023/07/08 00:22:50;;;;;;;;;;;25.80;48.00;;;;;;5095138;28;19932;-58
2023/07/08 00:25:19;;;;;;;;;;;25.80;48.10;;;;;;5095760;28;20008;-58
2023/07/08 00:27:50;;;;;;;;;;;25.80;48.10;;;;;;5095564;28;19928;-58
2023/07/08 00:30:21;;;;;;;;;;;25.70;48.10;;;;;;5095412;28;20044;-58
2023/07/08 00:32:53;;;;;;;;;;;25.80;48.10;;;;;;5095019;28;19924;-58
2023/07/08 00:35:32;;;;;;;;;;;25.80;48.20;;;;;;5096310;28;20011;-58
2023/07/08 00:38:02;;;;;;;;;;;25.70;48.10;;;;;;5096186;28;19924;-58
2023/07/08 00:40:31;;;;;;;;;;;25.70;48.10;;;;;;5095480;28;19978;-58
2023/07/08 00:43:00;;;;;;;;;;;25.70;48.20;;;;;;5094919;28;20375;-58
2023/07/08 00:45:40;;;;;;;;;;;25.70;48.20;;;;;;5095716;28;20334;-58
2023/07/08 00:48:25;;;;;;;;;;;25.70;48.20;;;;;;5095202;28;19924;-58
2023/07/08 00:50:52;;;;;;;;;;;25.70;48.20;;;;;;5094609;28;19924;-58
2023/07/08 00:53:26;;;;;;;;;;;25.70;48.20;;;;;;5095272;28;19977;-58
2023/07/08 00:55:56;;;;;;;;;;;25.70;48.30;;;;;;5094971;28;20334;-57
2023/07/08 00:58:24;;;;;;;;;;;25.70;48.20;;;;;;5095910;28;19970;-58
2023/07/08 01:00:53;;;;;;;;;;;25.70;48.30;;;;;;5095038;28;19981;-58
2023/07/08 01:03:21;;;;;;;;;;;25.70;48.30;;;;;;5095700;28;20289;-58
2023/07/08 01:05:49;;;;;;;;;;;25.70;48.30;;;;;;5095095;28;20015;-58
2023/07/08 01:08:16;;;;;;;;;;;25.70;48.30;;;;;;5094356;28;20014;-58
2023/07/08 01:10:45;;;;;;;;;;;25.70;48.30;;;;;;5094492;28;20435;-58
2023/07/08 01:13:13;;;;;;;;;;;25.70;48.40;;;;;;5095643;28;20334;-58
2023/07/08 01:15:42;;;;;;;;;;;25.70;48.40;;;;;;5094896;28;19928;-58
2023/07/08 01:18:10;;;;;;;;;;;25.70;48.40;;;;;;5095426;28;19928;-57
2023/07/08 01:20:37;;;;;;;;;;;25.70;48.40;;;;;;5093878;28;19940;-59
2023/07/08 01:23:04;;;;;;;;;;;25.70;48.40;;;;;;5094926;28;20391;-58
2023/07/08 01:25:32;;;;;;;;;;;25.70;48.40;;;;;;5093668;28;19924;-58
2023/07/08 01:27:59;;;;;;;;;;;25.70;48.40;;;;;;5095458;28;19928;-58
2023/07/08 01:30:26;;;;;;;;;;;25.70;48.40;;;;;;5093892;28;19969;-58
2023/07/08 01:32:56;;;;;;;;;;;25.70;48.40;;;;;;5094653;28;19928;-57
2023/07/08 01:35:23;;;;;;;;;;;25.70;48.40;;;;;;5094898;28;19941;-58
2023/07/08 01:37:53;;;;;;;;;;;25.70;48.40;;;;;;5095494;28;19924;-58
2023/07/08 01:40:26;;;;;;;;;;;25.70;48.40;;;;;;5093258;28;19924;-58
2023/07/08 01:42:53;;;;;;;;;;;25.70;48.40;;;;;;5094083;28;19950;-58
2023/07/08 01:45:21;;;;;;;;;;;25.70;48.40;;;;;;5093332;28;20024;-58
2023/07/08 01:47:50;;;;;;;;;;;25.70;48.40;;;;;;5093979;28;19973;-58
2023/07/08 01:50:18;;;;;;;;;;;25.70;48.40;;;;;;5094694;28;19924;-58
2023/07/08 01:52:45;;;;;;;;;;;25.70;48.40;;;;;;5092343;28;20058;-58
2023/07/08 01:55:12;;;;;;;;;;;25.70;48.40;;;;;;5094391;28;19977;-58
2023/07/08 01:57:39;;;;;;;;;;;25.70;48.40;;;;;;5094620;28;19950;-57
2023/07/08 02:00:07;;;;;;;;;;;25.70;48.40;;;;;;5093416;28;19978;-58
2023/07/08 02:02:34;;;;;;;;;;;25.70;48.40;;;;;;5093033;28;20334;-58
2023/07/08 02:05:01;;;;;;;;;;;25.70;48.40;;;;;;5093292;28;20339;-58
2023/07/08 02:07:28;;;;;;;;;;;25.70;48.40;;;;;;5094227;28;19987;-58
2023/07/08 02:09:54;;;;;;;;;;;25.70;48.50;;;;;;5093612;28;19981;-58
2023/07/08 02:12:22;;;;;;;;;;;25.70;48.50;;;;;;5093001;28;19928;-58
2023/07/08 02:14:48;;;;;;;;;;;25.60;48.50;;;;;;5093627;28;20036;-58
2023/07/08 02:17:16;;;;;;;;;;;25.70;48.50;;;;;;5093291;28;19982;-58
2023/07/08 02:19:43;;;;;;;;;;;25.60;48.50;;;;;;5093338;28;19977;-58
2023/07/08 02:22:11;;;;;;;;;;;25.60;49.10;;;;;;5094102;28;20014;-58
2023/07/08 02:24:38;;;;;;;;;;;25.60;48.50;;;;;;5093520;28;19924;-58
2023/07/08 02:27:05;;;;;;;;;;;25.60;48.50;;;;;;5094062;28;19968;-58
2023/07/08 02:29:32;;;;;;;;;;;25.60;48.60;;;;;;5094116;28;19924;-58
2023/07/08 02:31:59;;;;;;;;;;;25.60;48.60;;;;;;5093223;28;19977;-58
2023/07/08 02:34:26;;;;;;;;;;;25.60;48.60;;;;;;5093844;28;20007;-58
2023/07/08 02:36:53;;;;;;;;;;;25.60;48.70;;;;;;5093285;28;20414;-58
2023/07/08 02:39:20;;;;;;;;;;;25.60;48.60;;;;;;5092018;28;19934;-58
2023/07/08 02:41:47;;;;;;;;;;;25.60;48.70;;;;;;5094129;28;20043;-58
2023/07/08 02:44:14;;;;;;;;;;;25.60;48.70;;;;;;5093051;28;19931;-58
2023/07/08 02:46:41;;;;;;;;;;;25.60;48.70;;;;;;5092562;28;19928;-58
2023/07/08 02:49:08;;;;;;;;;;;25.60;48.70;;;;;;5093606;28;19977;-58
2023/07/08 02:51:35;;;;;;;;;;;25.60;48.70;;;;;;5092586;28;19932;-58
2023/07/08 02:54:02;;;;;;;;;;;25.60;48.70;;;;;;5093049;28;19967;-58
2023/07/08 02:56:29;;;;;;;;;;;25.60;48.70;;;;;;5093243;28;19977;-58
2023/07/08 02:58:56;;;;;;;;;;;25.50;48.70;;;;;;5092699;28;19924;-58
2023/07/08 03:01:23;;;;;;;;;;;25.60;48.80;;;;;;5093194;28;19993;-57
2023/07/08 03:03:50;;;;;;;;;;;25.60;48.80;;;;;;5092754;28;19930;-58
2023/07/08 03:06:17;;;;;;;;;;;25.50;48.70;;;;;;5092059;28;19928;-58
2023/07/08 03:08:44;;;;;;;;;;;25.60;48.80;;;;;;5092184;28;19970;-58
2023/07/08 03:11:11;;;;;;;;;;;25.50;48.70;;;;;;5092581;28;19932;-58
2023/07/08 03:13:38;;;;;;;;;;;25.50;48.70;;;;;;5093553;28;20339;-58
2023/07/08 03:16:12;;;;;;;;;;;25.60;48.80;;;;;;5091230;28;20015;-58
2023/07/08 03:18:45;;;;;;;;;;;25.50;48.70;;;;;;5092503;28;19970;-58
2023/07/08 03:21:14;;;;;;;;;;;25.50;48.80;;;;;;5092387;28;19936;-58
2023/07/08 03:23:41;;;;;;;;;;;25.60;48.80;;;;;;5092590;28;19971;-58
2023/07/08 03:26:12;;;;;;;;;;;25.60;48.80;;;;;;5092261;28;19928;-58
2023/07/08 03:28:39;;;;;;;;;;;25.60;48.80;;;;;;5092739;28;19924;-58
2023/07/08 03:31:08;;;;;;;;;;;25.60;48.80;;;;;;5092306;28;19931;-58
2023/07/08 03:33:35;;;;;;;;;;;25.60;48.70;;;;;;5092941;28;20368;-58
2023/07/08 03:36:02;;;;;;;;;;;25.60;48.70;;;;;;5092180;28;19970;-58
2023/07/08 03:38:29;;;;;;;;;;;25.60;48.70;;;;;;5092696;28;19931;-58
2023/07/08 03:40:56;;;;;;;;;;;25.60;48.60;;;;;;5092593;28;19924;-58
2023/07/08 03:43:24;;;;;;;;;;;25.70;48.70;;;;;;5093171;28;19924;-58
2023/07/08 03:45:51;;;;;;;;;;;25.70;48.60;;;;;;5092955;28;19963;-58
2023/07/08 03:48:18;;;;;;;;;;;25.70;48.60;;;;;;5090980;28;19937;-58
2023/07/08 03:50:45;;;;;;;;;;;25.70;48.50;;;;;;5092618;28;20008;-58
2023/07/08 03:53:11;;;;;;;;;;;25.70;48.50;;;;;;5092523;28;20041;-58
2023/07/08 03:55:38;;;;;;;;;;;25.70;48.40;;;;;;5092620;28;19924;-58
2023/07/08 03:58:05;;;;;;;;;;;25.70;48.40;;;;;;5092097;28;19924;-58
2023/07/08 04:00:32;;;;;;;;;;;25.80;48.40;;;;;;5092002;28;19924;-58
2023/07/08 04:02:59;;;;;;;;;;;25.70;48.30;;;;;;5092963;28;20342;-58
2023/07/08 04:05:26;;;;;;;;;;;25.80;48.30;;;;;;5092809;28;19947;-58
2023/07/08 04:07:55;;;;;;;;;;;25.80;48.30;;;;;;5092212;28;20327;-58
2023/07/08 04:10:22;;;;;;;;;;;25.80;48.20;;;;;;5091975;28;19971;-58
2023/07/08 04:12:49;;;;;;;;;;;25.80;48.20;;;;;;5091792;28;19928;-58
2023/07/08 04:15:16;;;;;;;;;;;25.80;48.20;;;;;;5093086;28;19977;-58
2023/07/08 04:17:45;;;;;;;;;;;25.90;48.30;;;;;;5092492;28;19924;-58
2023/07/08 04:20:18;;;;;;;;;;;25.90;48.30;;;;;;5075166;28;19978;-58
2023/07/08 04:22:46;;;;;;;;;;;25.90;48.20;;;;;;5093301;28;19969;-58
2023/07/08 04:25:14;;;;;;;;;;;25.90;48.20;;;;;;5093001;28;19953;-58
2023/07/08 04:27:41;;;;;;;;;;;25.90;48.20;;;;;;5092399;28;19928;-58
2023/07/08 04:30:18;;;;;;;;;;;25.90;48.10;;;;;;5092551;28;19928;-58
2023/07/08 04:32:45;;;;;;;;;;;25.90;48.10;;;;;;5093016;28;19924;-58
2023/07/08 04:35:12;;;;;;;;;;;25.90;48.10;;;;;;5092838;28;19924;-58
2023/07/08 04:37:39;;;;;;;;;;;25.90;48.10;;;;;;5092983;28;19924;-58
2023/07/08 04:40:14;;;;;;;;;;;25.80;48.10;;;;;;5092290;28;19974;-58
2023/07/08 04:42:41;;;;;;;;;;;25.80;48.10;;;;;;5092659;28;19967;-58
2023/07/08 04:45:08;;;;;;;;;;;25.60;48.20;;;;;;5095534;28;19971;-58
2023/07/08 04:47:35;;;;;;;;;;;25.40;48.50;;;;;;5095940;28;20273;-58
2023/07/08 04:50:03;;;;;;;;;;;25.10;48.90;;;;;;5096105;28;19950;-58
2023/07/08 04:52:30;;;;;;;;;;;24.90;49.50;;;;;;5096765;28;19959;-57
2023/07/08 04:54:57;;;;;;;;;;;24.60;49.40;;;;;;5095764;28;19978;-58
2023/07/08 04:57:25;;;;;;;;;;;24.30;49.00;;;;;;5096116;28;20338;-58
2023/07/08 04:59:51;;;;;;;;;;;23.90;48.60;;;;;;5096377;28;20290;-58
2023/07/08 05:02:19;;;;;;;;;;;23.60;48.90;;;;;;5096295;28;19969;-58
2023/07/08 05:04:46;;;;;;;;;;;23.20;48.80;;;;;;5096010;28;19930;-58
2023/07/08 05:07:14;;;;;;;;;;;22.90;48.80;;;;;;5095311;28;19935;-59
2023/07/08 05:09:40;;;;;;;;;;;22.50;49.10;;;;;;5095611;28;20519;-58
2023/07/08 05:12:07;;;;;;;;;;;22.20;49.20;;;;;;5095074;28;19928;-57
2023/07/08 05:14:34;;;;;;;;;;;21.90;49.50;;;;;;5096016;28;20015;-58
2023/07/08 05:17:02;;;;;;;;;;;21.60;50.20;;;;;;5095683;28;19979;-57
2023/07/08 05:19:29;;;;;;;;;;;21.40;51.00;;;;;;5095493;28;20364;-58
2023/07/08 05:21:56;;;;;;;;;;;21.20;51.20;;;;;;5094976;28;19924;-57
2023/07/08 05:24:23;;;;;;;;;;;21.00;51.70;;;;;;5095978;28;19925;-57
2023/07/08 05:26:50;;;;;;;;;;;20.90;52.20;;;;;;5095167;28;19924;-58
2023/07/08 05:29:17;;;;;;;;;;;20.70;52.60;;;;;;5095652;28;19954;-57
2023/07/08 05:31:44;;;;;;;;;;;20.60;53.70;;;;;;5095868;28;20357;-57
2023/07/08 05:34:14;;;;;;;;;;;20.60;53.80;;;;;;5095400;28;19978;-58
2023/07/08 05:36:41;;;;;;;;;;;20.50;54.00;;;;;;5094619;28;20102;-57
2023/07/08 05:39:08;;;;;;;;;;;20.50;53.80;;;;;;5095474;28;19924;-58
2023/07/08 05:41:35;;;;;;;;;;;20.40;53.70;;;;;;5095804;28;19967;-57
2023/07/08 05:44:02;;;;;;;;;;;20.40;53.80;;;;;;5093955;28;20380;-57
2023/07/08 05:46:29;;;;;;;;;;;20.30;53.90;;;;;;5095249;28;19930;-58
2023/07/08 05:48:56;;;;;;;;;;;20.30;53.70;;;;;;5095500;28;19947;-57
2023/07/08 05:51:27;;;;;;;;;;;20.20;54.00;;;;;;5094915;28;20042;-57
2023/07/08 05:53:54;;;;;;;;;;;20.20;54.20;;;;;;5093685;28;19924;-58
2023/07/08 05:56:21;;;;;;;;;;;20.20;54.00;;;;;;5094586;28;20380;-59
2023/07/08 05:58:48;;;;;;;;;;;20.20;54.20;;;;;;5093381;28;20003;-57
2023/07/08 06:01:15;;;;;;;;;;;20.20;54.30;;;;;;5095273;28;20007;-58
2023/07/08 06:03:42;;;;;;;;;;;20.20;54.60;;;;;;5094200;28;20411;-57
2023/07/08 06:06:09;;;;;;;;;;;20.10;54.50;;;;;;5094897;28;19931;-58
2023/07/08 06:08:36;;;;;;;;;;;20.10;54.80;;;;;;5094917;28;19967;-58
2023/07/08 06:11:03;;;;;;;;;;;20.10;55.10;;;;;;5094788;28;19931;-58
2023/07/08 06:13:30;;;;;;;;;;;20.10;55.60;;;;;;5094840;28;19924;-58
2023/07/08 06:15:57;;;;;;;;;;;20.10;55.70;;;;;;5093981;28;19931;-57
2023/07/08 06:18:24;;;;;;;;;;;20.10;55.90;;;;;;5094735;28;19924;-58
2023/07/08 06:20:52;;;;;;;;;;;20.20;56.20;;;;;;5089327;28;19982;-58
2023/07/08 06:23:19;;;;;;;;;;;20.20;56.40;;;;;;5086882;28;19924;-58
2023/07/08 06:25:46;;;;;;;;;;;20.30;56.10;;;;;;5093714;28;19982;-58
2023/07/08 06:28:13;;;;;;;;;;;20.30;56.30;;;;;;5093609;28;20438;-57
2023/07/08 06:30:40;;;;;;;;;;;20.30;56.30;;;;;;5094568;28;19966;-57
2023/07/08 06:33:07;;;;;;;;;;;20.30;56.10;;;;;;5094741;28;19924;-57
2023/07/08 06:35:34;;;;;;;;;;;20.30;56.20;;;;;;5093517;28;19932;-58
2023/07/08 06:38:01;;;;;;;;;;;20.30;56.20;;;;;;5094365;28;20433;-58
2023/07/08 06:40:28;;;;;;;;;;;20.40;56.20;;;;;;5094035;28;19928;-59
2023/07/08 06:42:55;;;;;;;;;;;20.40;56.20;;;;;;5093643;28;19925;-58
2023/07/08 06:45:22;;;;;;;;;;;20.40;56.20;;;;;;5094093;28;19973;-57
2023/07/08 06:47:49;;;;;;;;;;;20.40;56.40;;;;;;5093961;28;20360;-57
2023/07/08 06:50:16;;;;;;;;;;;20.40;56.50;;;;;;5093986;28;19927;-57
2023/07/08 06:52:43;;;;;;;;;;;20.50;56.60;;;;;;5093507;28;19924;-57
2023/07/08 06:55:10;;;;;;;;;;;20.50;56.50;;;;;;5092583;28;19967;-57
2023/07/08 06:57:38;;;;;;;;;;;20.50;56.60;;;;;;5093769;28;20003;-58
2023/07/08 07:00:09;;;;;;;;;;;20.60;56.50;;;;;;5093514;28;19950;-58
2023/07/08 07:02:36;;;;;;;;;;;20.60;56.50;;;;;;5093675;28;19924;-57
2023/07/08 07:05:04;;;;;;;;;;;20.60;56.60;;;;;;5093099;28;19930;-58
2023/07/08 07:07:31;;;;;;;;;;;20.60;56.60;;;;;;5093067;28;20331;-57
2023/07/08 07:09:58;;;;;;;;;;;20.60;56.70;;;;;;5091487;28;19997;-58
2023/07/08 07:12:26;;;;;;;;;;;20.70;56.70;;;;;;5093899;28;19924;-58
2023/07/08 07:14:55;;;;;;;;;;;20.70;56.80;;;;;;5093537;28;20019;-57
2023/07/08 07:17:23;;;;;;;;;;;20.80;56.90;;;;;;5093200;28;20353;-58
2023/07/08 07:19:50;;;;;;;;;;;20.80;56.80;;;;;;5092464;28;19930;-58
2023/07/08 07:22:17;;;;;;;;;;;20.80;56.80;;;;;;5093524;28;19967;-57
2023/07/08 07:24:44;;;;;;;;;;;20.80;56.80;;;;;;5092531;28;19974;-57
2023/07/08 07:27:11;;;;;;;;;;;20.80;56.80;;;;;;5092186;28;19925;-57
2023/07/08 07:29:41;;;;;;;;;;;20.90;57.00;;;;;;5093083;28;20351;-58
2023/07/08 07:32:08;;;;;;;;;;;20.90;57.00;;;;;;5091050;28;19957;-57
2023/07/08 07:34:35;;;;;;;;;;;20.90;56.90;;;;;;5092822;28;19955;-58
2023/07/08 07:37:02;;;;;;;;;;;20.90;56.70;;;;;;5091529;28;19935;-58
2023/07/08 07:39:29;;;;;;;;;;;20.90;57.00;;;;;;5091439;28;19966;-58
2023/07/08 07:41:56;;;;;;;;;;;20.90;56.90;;;;;;5092533;28;20012;-57
2023/07/08 07:44:24;;;;;;;;;;;21.00;57.10;;;;;;5091411;28;19978;-57
2023/07/08 07:46:52;;;;;;;;;;;21.00;57.10;;;;;;5092823;28;19931;-58
2023/07/08 07:49:19;;;;;;;;;;;21.00;57.10;;;;;;5092479;28;19993;-57
2023/07/08 07:51:46;;;;;;;;;;;21.00;57.10;;;;;;5092510;28;19924;-58
2023/07/08 07:54:14;;;;;;;;;;;21.00;57.20;;;;;;5092972;28;19928;-57
2023/07/08 07:56:41;;;;;;;;;;;21.00;57.20;;;;;;5091597;28;20398;-59
2023/07/08 07:59:07;;;;;;;;;;;21.00;57.30;;;;;;5091985;28;19947;-58
2023/07/08 08:01:34;;;;;;;;;;;21.10;57.30;;;;;;5092566;28;19924;-58
2023/07/08 08:04:01;;;;;;;;;;;21.10;57.40;;;;;;5091904;28;19964;-57
2023/07/08 08:06:28;;;;;;;;;;;21.00;57.30;;;;;;5091807;28;19924;-57
2023/07/08 08:08:57;;;;;;;;;;;21.10;57.50;;;;;;5092540;28;20384;-58
2023/07/08 08:11:25;;;;;;;;;;;21.10;57.40;;;;;;5092526;28;20367;-58
2023/07/08 08:13:53;;;;;;;;;;;21.10;57.60;;;;;;5092928;28;19924;-58
2023/07/08 08:16:20;;;;;;;;;;;21.10;57.60;;;;;;5091901;28;20388;-58
2023/07/08 08:18:47;;;;;;;;;;;21.10;57.50;;;;;;5095139;28;19924;-58
2023/07/08 08:21:14;;;;;;;;;;;21.10;57.60;;;;;;5095980;28;19977;-57
2023/07/08 08:23:41;;;;;;;;;;;21.20;57.70;;;;;;5095856;28;20399;-58
2023/07/08 08:26:08;;;;;;;;;;;21.20;57.50;;;;;;5096912;28;19971;-57
2023/07/08 08:28:35;;;;;;;;;;;21.20;57.60;;;;;;5096895;28;19955;-57
2023/07/08 08:31:02;;;;;;;;;;;21.20;57.70;;;;;;5096665;28;20380;-58
2023/07/08 08:33:29;;;;;;;;;;;21.10;57.50;;;;;;5095012;28;19924;-58
2023/07/08 08:35:56;;;;;;;;;;;21.20;57.70;;;;;;5076498;28;19925;-58
2023/07/08 08:38:24;;;;;;;;;;;21.20;57.60;;;;;;5075923;28;19928;-58
2023/07/08 08:40:51;;;;;;;;;;;21.20;57.50;;;;;;5075773;28;19964;-58
2023/07/08 08:43:22;;;;;;;;;;;21.20;57.60;;;;;;5075962;28;20258;-57
2023/07/08 08:46:09;;;;;;;;;;;21.20;57.40;;;;;;5076296;28;19978;-58
2023/07/08 08:48:41;;;;;;;;;;;21.20;57.30;;;;;;5075080;28;19970;-57
2023/07/08 08:51:12;;;;;;;;;;;21.20;57.30;;;;;;5075397;28;19972;-57
2023/07/08 08:53:39;;;;;;;;;;;21.20;57.20;;;;;;5073409;28;20339;-58
2023/07/08 08:56:14;;;;;;;;;;;21.20;57.10;;;;;;5075385;28;20322;-58
2023/07/08 08:58:54;;;;;;;;;;;21.20;56.90;;;;;;5074381;28;20368;-58
2023/07/08 09:01:21;;;;;;;;;;;21.20;57.00;;;;;;5075978;28;20011;-57
2023/07/08 09:03:56;;;;;;;;;;;21.10;57.00;;;;;;5075164;28;20372;-58
2023/07/08 09:06:27;;;;;;;;;;;21.20;57.00;;;;;;5074201;28;20007;-57
2023/07/08 09:08:56;;;;;;;;;;;21.10;57.10;;;;;;5074877;28;19964;-58
2023/07/08 09:11:38;;;;;;;;;;;21.20;57.20;;;;;;5074975;28;20049;-57
2023/07/08 09:14:08;;;;;;;;;;;21.10;57.30;;;;;;5074557;28;20324;-58
2023/07/08 09:16:42;;;;;;;;;;;21.10;57.30;;;;;;5075506;28;19947;-57
2023/07/08 09:19:11;;;;;;;;;;;21.20;57.20;;;;;;5074516;28;20448;-58
2023/07/08 09:21:56;;;;;;;;;;;21.20;57.40;;;;;;5074022;28;20392;-58
2023/07/08 09:24:32;;;;;;;;;;;21.20;57.30;;;;;;5074715;28;19924;-58
2023/07/08 09:27:00;;;;;;;;;;;21.20;57.20;;;;;;5075249;28;19924;-58
2023/07/08 09:29:28;;;;;;;;;;;21.20;57.30;;;;;;5072961;28;19925;-57
2023/07/08 09:31:55;;;;;;;;;;;21.20;57.10;;;;;;5074216;28;20388;-58
2023/07/08 09:34:23;;;;;;;;;;;21.30;56.90;;;;;;5075431;28;19924;-58
2023/07/08 09:36:51;;;;;;;;;;;21.20;56.80;;;;;;5073874;28;20543;-57
2023/07/08 09:39:20;;;;;;;;;;;21.20;56.90;;;;;;5074665;28;19970;-57
2023/07/08 09:41:48;;;;;;;;;;;21.30;56.80;;;;;;5074896;28;19960;-57
2023/07/08 09:44:17;;;;;;;;;;;21.30;56.60;;;;;;5072647;28;20343;-57
2023/07/08 09:46:45;;;;;;;;;;;21.30;56.70;;;;;;5073616;28;19947;-58
2023/07/08 09:49:17;;;;;;;;;;;21.30;56.70;;;;;;5074191;28;19925;-58
2023/07/08 09:51:45;;;;;;;;;;;21.30;56.70;;;;;;5072764;28;19924;-58
2023/07/08 09:54:12;;;;;;;;;;;21.30;56.80;;;;;;5074788;28;20373;-57
2023/07/08 09:56:41;;;;;;;;;;;21.30;56.70;;;;;;5073808;28;19947;-58
2023/07/08 09:59:12;;;;;;;;;;;21.30;56.60;;;;;;5074274;28;19959;-58
2023/07/08 10:01:40;;;;;;;;;;;21.30;56.50;;;;;;5073392;28;19966;-57
2023/07/08 10:04:07;;;;;;;;;;;21.30;56.30;;;;;;5073793;28;20016;-58
2023/07/08 10:06:35;;;;;;;;;;;21.30;56.20;;;;;;5074261;28;19924;-58
2023/07/08 10:09:04;;;;;;;;;;;21.30;56.20;;;;;;5073510;28;19970;-60
2023/07/08 10:11:33;;;;;;;;;;;21.30;55.90;;;;;;5073640;28;19925;-57
2023/07/08 10:14:03;;;;;;;;;;;21.30;55.80;;;;;;5094307;28;19950;-57
2023/07/08 10:16:40;;;;;;;;;;;21.20;55.80;;;;;;5094833;28;19947;-57
2023/07/08 10:19:11;;;;;;;;;;;21.20;55.80;;;;;;5093177;28;19928;-58
2023/07/08 10:21:57;;;;;;;;;;;21.20;55.60;;;;;;5092650;28;19932;-57
2023/07/08 10:24:44;;;;;;;;;;;21.20;55.40;;;;;;5094219;28;19924;-57
2023/07/08 10:27:34;;;;;;;;;;;21.20;55.30;;;;;;5094230;28;20318;-58
2023/07/08 10:30:19;;;;;;;;;;;21.20;55.20;;;;;;5092880;28;19924;-58
2023/07/08 10:33:08;;;;;;;;;;;21.20;55.20;;;;;;5093303;28;19924;-57
2023/07/08 10:35:39;;;;;;;;;;;21.20;55.00;;;;;;5092994;28;20376;-58
2023/07/08 10:38:15;;;;;;;;;;;21.20;54.90;;;;;;5093593;28;19963;-59
2023/07/08 10:40:47;;;;;;;;;;;21.20;54.90;;;;;;5092982;28;19931;-57
2023/07/08 10:43:34;;;;;;;;;;;21.10;54.70;;;;;;5093455;28;19970;-57
2023/07/08 10:46:09;;;;;;;;;;;21.10;54.50;;;;;;5093288;28;19928;-58
2023/07/08 10:48:56;;;;;;;;;;;21.10;54.70;;;;;;5093925;28;19930;-57
2023/07/08 10:51:43;;;;;;;;;;;21.10;54.70;;;;;;5090777;28;19932;-57
2023/07/08 10:54:30;;;;;;;;;;;21.00;54.70;;;;;;5093297;28;19927;-58
2023/07/08 10:57:17;;;;;;;;;;;21.10;54.80;;;;;;5092317;28;19950;-57
2023/07/08 10:59:56;;;;;;;;;;;21.10;54.80;;;;;;5092718;28;19971;-57
2023/07/08 11:02:43;;;;;;;;;;;21.00;54.60;;;;;;5093127;28;19928;-57
2023/07/08 11:05:31;;;;;;;;;;;21.00;54.90;;;;;;5092695;28;20003;-57
2023/07/08 11:08:01;;;;;;;;;;;21.10;55.20;;;;;;5092898;28;20292;-57
2023/07/08 11:10:38;;;;;;;;;;;21.00;55.60;;;;;;5093975;28;19977;-57
2023/07/08 11:13:12;;;;;;;;;;;21.10;54.90;;;;;;5091850;28;21391;-57
2023/07/08 11:15:45;;;;;;;;;;;21.10;54.80;;;;;;5092577;28;19924;-57
2023/07/08 11:18:17;;;;;;;;;;;21.10;54.60;;;;;;5093747;28;20269;-57
2023/07/08 11:21:04;;;;;;;;;;;21.10;54.60;;;;;;5092567;28;19924;-57
2023/07/08 11:23:40;;;;;;;;;;;21.10;54.30;;;;;;5093033;28;19969;-57
2023/07/08 11:26:27;;;;;;;;;;;21.10;54.60;;;;;;5093685;28;19959;-57
2023/07/08 11:28:56;;;;;;;;;;;21.20;54.70;;;;;;5078257;28;19985;-57
2023/07/08 11:31:24;;;;;;;;;;;21.10;54.50;;;;;;5093228;28;19967;-57
2023/07/08 11:33:52;;;;;;;;;;;21.10;54.70;;;;;;5093377;28;19931;-57
2023/07/08 11:36:19;;;;;;;;;;;21.10;54.60;;;;;;5093377;28;19927;-57
2023/07/08 11:38:50;;;;;;;;;;;21.10;54.50;;;;;;5093348;28;19924;-57
2023/07/08 11:41:19;;;;;;;;;;;21.00;54.40;;;;;;5093577;28;19938;-57
2023/07/08 11:43:48;;;;;;;;;;;21.00;54.40;;;;;;5093337;28;19969;-57
2023/07/08 11:46:20;;;;;;;;;;;21.00;54.20;;;;;;5091689;28;19924;-57
2023/07/08 11:48:48;;;;;;;;;;;20.90;54.40;;;;;;5092617;28;19928;-57
2023/07/08 11:51:30;;;;;;;;;;;20.90;54.40;;;;;;5078599;28;20023;-57
2023/07/08 11:54:17;;;;;;;;;;;20.90;54.50;;;;;;5095707;28;20019;-57
2023/07/08 11:56:49;;;;;;;;;;;20.80;54.40;;;;;;5087892;28;19928;-57
2023/07/08 11:59:18;;;;;;;;;;;20.80;54.40;;;;;;5076598;28;19982;-57
2023/07/08 12:01:46;;;;;;;;;;;20.80;54.50;;;;;;5077569;28;19928;-57
2023/07/08 12:04:25;;;;;;;;;;;20.80;54.50;;;;;;5077128;28;19928;-57
2023/07/08 12:07:05;;;;;;;;;;;20.80;54.60;;;;;;5075153;28;19924;-57
2023/07/08 12:09:45;;;;;;;;;;;20.80;54.40;;;;;;5076111;28;19929;-57
2023/07/08 12:12:20;;;;;;;;;;;20.80;54.70;;;;;;5076720;28;19925;-57
2023/07/08 12:14:47;;;;;;;;;;;20.80;54.70;;;;;;5080958;28;19931;-57
2023/07/08 12:17:14;;;;;;;;;;;20.80;54.70;;;;;;5097435;28;19931;-57
2023/07/08 12:19:43;;;;;;;;;;;20.80;54.70;;;;;;5097119;28;19977;-57
2023/07/08 12:22:11;;;;;;;;;;;20.80;54.70;;;;;;5096337;28;20019;-58
2023/07/08 12:24:39;;;;;;;;;;;20.90;54.70;;;;;;5096835;28;19950;-58
2023/07/08 12:27:08;;;;;;;;;;;20.90;54.80;;;;;;5095605;28;19974;-57
2023/07/08 12:29:36;;;;;;;;;;;20.90;54.80;;;;;;5096522;28;20383;-57
2023/07/08 12:32:03;;;;;;;;;;;20.90;54.70;;;;;;5096779;28;19931;-57
2023/07/08 12:34:31;;;;;;;;;;;20.90;54.80;;;;;;5095401;28;20434;-58
2023/07/08 12:36:58;;;;;;;;;;;21.00;54.90;;;;;;5096706;28;20351;-58
2023/07/08 12:39:25;;;;;;;;;;;20.90;54.90;;;;;;5095484;28;19928;-57
2023/07/08 12:41:52;;;;;;;;;;;21.00;55.10;;;;;;5095994;28;19931;-57
2023/07/08 12:44:21;;;;;;;;;;;21.00;54.90;;;;;;5095989;28;19924;-57
2023/07/08 12:46:49;;;;;;;;;;;21.00;55.00;;;;;;5095511;28;20439;-58
2023/07/08 12:49:18;;;;;;;;;;;21.00;55.60;;;;;;5095974;28;19924;-57
2023/07/08 12:51:46;;;;;;;;;;;21.10;55.50;;;;;;5095370;28;20305;-59
2023/07/08 12:54:14;;;;;;;;;;;21.10;55.30;;;;;;5095309;28;19932;-58
2023/07/08 12:56:43;;;;;;;;;;;21.10;55.20;;;;;;5095649;28;19927;-58
2023/07/08 12:59:14;;;;;;;;;;;21.10;55.00;;;;;;5096084;28;20438;-58
2023/07/08 13:01:41;;;;;;;;;;;21.10;54.80;;;;;;5094855;28;20385;-58
2023/07/08 13:04:10;;;;;;;;;;;21.10;54.80;;;;;;5093947;28;19928;-58
2023/07/08 13:06:38;;;;;;;;;;;21.20;54.70;;;;;;5094959;28;20435;-59
2023/07/08 13:09:19;;;;;;;;;;;21.10;54.50;;;;;;5095527;28;20412;-58
2023/07/08 13:11:46;;;;;;;;;;;21.20;54.70;;;;;;5095253;28;20484;-59
2023/07/08 13:14:14;;;;;;;;;;;21.20;54.60;;;;;;5094732;28;19932;-59
2023/07/08 13:16:41;;;;;;;;;;;21.10;54.50;;;;;;5095287;28;20014;-58
2023/07/08 13:19:11;;;;;;;;;;;21.10;54.50;;;;;;5094497;28;20011;-58
2023/07/08 13:21:38;;;;;;;;;;;21.10;54.40;;;;;;5094507;28;19931;-59
2023/07/08 13:24:11;;;;;;;;;;;21.10;54.50;;;;;;5094649;28;20011;-58
2023/07/08 13:26:39;;;;;;;;;;;21.10;54.50;;;;;;5095165;28;19924;-59
2023/07/08 13:29:18;;;;;;;;;;;21.00;54.40;;;;;;5093561;28;19975;-58
2023/07/08 13:31:53;;;;;;;;;;;21.10;54.40;;;;;;5093679;28;19964;-59
2023/07/08 13:34:23;;;;;;;;;;;21.00;54.30;;;;;;5094155;28;19924;-59
2023/07/08 13:36:51;;;;;;;;;;;21.00;54.20;;;;;;5094388;28;20330;-59
2023/07/08 13:39:27;;;;;;;;;;;21.00;54.10;;;;;;5094522;28;20019;-59
2023/07/08 13:41:55;;;;;;;;;;;21.00;54.30;;;;;;5095555;28;19928;-58
2023/07/08 13:44:24;;;;;;;;;;;21.00;54.10;;;;;;5094743;28;19924;-58
2023/07/08 13:46:53;;;;;;;;;;;21.00;54.20;;;;;;5093965;28;19924;-59
2023/07/08 13:49:27;;;;;;;;;;;21.00;54.20;;;;;;5094193;28;19977;-58
2023/07/08 13:52:06;;;;;;;;;;;21.00;54.10;;;;;;5093662;28;20384;-58
2023/07/08 13:54:37;;;;;;;;;;;21.00;54.40;;;;;;5094177;28;19931;-58
2023/07/08 13:57:08;;;;;;;;;;;20.90;54.50;;;;;;5093855;28;19928;-58
2023/07/08 13:59:35;;;;;;;;;;;20.90;54.60;;;;;;5095019;28;19950;-59
2023/07/08 14:02:13;;;;;;;;;;;20.90;54.80;;;;;;5093825;28;20376;-59
2023/07/08 14:04:40;;;;;;;;;;;21.00;56.80;;;;;;5094718;28;19924;-60
2023/07/08 14:07:15;;;;;;;;;;;21.10;60.50;;;;;;5093172;28;19959;-59
2023/07/08 14:09:42;;;;;;;;;;;21.30;61.00;;;;;;5094718;28;20032;-60
2023/07/08 14:12:09;;;;;;;;;;;21.70;61.90;;;;;;5093644;28;20015;-59
2023/07/08 14:14:36;;;;;;;;;;;22.00;61.60;;;;;;5093546;28;19924;-59
2023/07/08 14:17:03;;;;;;;;;;;22.20;61.60;;;;;;5092788;28;19979;-59
2023/07/08 14:19:31;;;;;;;;;;;22.50;61.30;;;;;;5093600;28;19924;-59
2023/07/08 14:22:07;;;;;;;;;;;22.70;61.00;;;;;;5093505;28;19924;-59
2023/07/08 14:24:34;;;;;;;;;;;23.00;61.10;;;;;;5093359;28;20008;-59
2023/07/08 14:27:01;;;;;;;;;;;23.20;61.00;;;;;;5092516;28;19971;-59
2023/07/08 14:29:29;;;;;;;;;;;23.40;61.10;;;;;;5094525;28;19978;-59